sensor_id;sensor_type;location;lat;lon;timestamp;pressure;altitude;pressure_sealevel;temperature;humidity
72118;BME280;59992;47.490;8.736;2024-03-02T00:00:30;95511.75;;;4.49;100.00
72118;BME280;59992;47.490;8.736;2024-03-02T00:03:20;95517.90;;;4.49;100.00
72118;BME280;59992;47.490;8.736;2024-03-02T00:06:11;95518.71;;;4.48;100.00
72118;BME280;59992;47.490;8.736;2024-03-02T00:09:01;95517.77;;;4.46;100.00
72118;BME280;59992;47.490;8.736;2024-03-02T00:11:53;95521.94;;;4.45;100.00
72118;BME280;59992;47.490;8.736;2024-03-02T00:14:43;95525.88;;;4.42;100.00
72118;BME280;59992;47.490;8.736;2024-03-02T00:17:33;95528.70;;;4.42;100.00
72118;BME280;59992;47.490;8.736;2024-03-02T00:20:24;95528.17;;;4.41;100.00
72118;BME280;59992;47.490;8.736;2024-03-02T00:23:17;95521.14;;;4.42;100.00
72118;BME280;59992;47.490;8.736;2024-03-02T00:26:12;95523.59;;;4.41;100.00
72118;BME280;59992;47.490;8.736;2024-03-02T00:29:03;95521.73;;;4.42;100.00
72118;BME280;59992;47.490;8.736;2024-03-02T00:31:54;95522.86;;;4.42;100.00
72118;BME280;59992;47.490;8.736;2024-03-02T00:34:44;95527.77;;;4.40;100.00
72118;BME280;59992;47.490;8.736;2024-03-02T00:37:35;95528.58;;;4.42;100.00
72118;BME280;59992;47.490;8.736;2024-03-02T00:40:28;95533.52;;;4.44;100.00
72118;BME280;59992;47.490;8.736;2024-03-02T00:43:54;95533.43;;;4.45;100.00
72118;BME280;59992;47.490;8.736;2024-03-02T00:46:46;95531.91;;;4.52;100.00
72118;BME280;59992;47.490;8.736;2024-03-02T00:49:37;95535.55;;;4.58;100.00
72118;BME280;59992;47.490;8.736;2024-03-02T00:52:27;95530.41;;;4.64;100.00
72118;BME280;59992;47.490;8.736;2024-03-02T00:55:17;95526.74;;;4.69;100.00
72118;BME280;59992;47.490;8.736;2024-03-02T00:58:08;95541.23;;;4.73;100.00
72118;BME280;59992;47.490;8.736;2024-03-02T01:00:58;95543.81;;;4.79;100.00
72118;BME280;59992;47.490;8.736;2024-03-02T01:03:49;95547.09;;;4.85;100.00
72118;BME280;59992;47.490;8.736;2024-03-02T01:06:39;95548.42;;;4.93;100.00
72118;BME280;59992;47.490;8.736;2024-03-02T01:09:29;95549.60;;;5.00;100.00
72118;BME280;59992;47.490;8.736;2024-03-02T01:12:20;95550.23;;;5.06;100.00
72118;BME280;59992;47.490;8.736;2024-03-02T01:15:10;95545.75;;;5.11;100.00
72118;BME280;59992;47.490;8.736;2024-03-02T01:18:01;95546.43;;;5.16;100.00
72118;BME280;59992;47.490;8.736;2024-03-02T01:20:52;95545.88;;;5.19;100.00
72118;BME280;59992;47.490;8.736;2024-03-02T01:23:44;95546.89;;;5.21;100.00
72118;BME280;59992;47.490;8.736;2024-03-02T01:26:34;95550.40;;;5.21;100.00
72118;BME280;59992;47.490;8.736;2024-03-02T01:29:24;95554.46;;;5.21;100.00
72118;BME280;59992;47.490;8.736;2024-03-02T01:32:14;95551.86;;;5.23;100.00
72118;BME280;59992;47.490;8.736;2024-03-02T01:35:07;95549.52;;;5.21;100.00
72118;BME280;59992;47.490;8.736;2024-03-02T01:37:58;95548.77;;;5.22;100.00
72118;BME280;59992;47.490;8.736;2024-03-02T01:40:49;95543.95;;;5.24;100.00
72118;BME280;59992;47.490;8.736;2024-03-02T01:43:44;95542.21;;;5.24;100.00
72118;BME280;59992;47.490;8.736;2024-03-02T01:46:34;95544.98;;;5.24;100.00
72118;BME280;59992;47.490;8.736;2024-03-02T01:49:25;95548.36;;;5.24;100.00
72118;BME280;59992;47.490;8.736;2024-03-02T01:52:15;95553.30;;;5.23;100.00
72118;BME280;59992;47.490;8.736;2024-03-02T01:55:06;95556.30;;;5.23;100.00
72118;BME280;59992;47.490;8.736;2024-03-02T01:57:57;95555.85;;;5.23;100.00
72118;BME280;59992;47.490;8.736;2024-03-02T02:00:52;95553.18;;;5.25;100.00
72118;BME280;59992;47.490;8.736;2024-03-02T02:03:45;95550.33;;;5.25;100.00
72118;BME280;59992;47.490;8.736;2024-03-02T02:06:35;95546.70;;;5.24;100.00
72118;BME280;59992;47.490;8.736;2024-03-02T02:09:25;95544.15;;;5.19;100.00
72118;BME280;59992;47.490;8.736;2024-03-02T02:12:15;95545.70;;;5.18;100.00
72118;BME280;59992;47.490;8.736;2024-03-02T02:15:22;95544.46;;;5.15;100.00
72118;BME280;59992;47.490;8.736;2024-03-02T02:18:13;95541.03;;;5.12;100.00
72118;BME280;59992;47.490;8.736;2024-03-02T02:21:04;95542.27;;;5.07;100.00
72118;BME280;59992;47.490;8.736;2024-03-02T02:23:54;95544.52;;;5.02;100.00
72118;BME280;59992;47.490;8.736;2024-03-02T02:26:47;95545.47;;;4.95;100.00
72118;BME280;59992;47.490;8.736;2024-03-02T02:29:37;95548.69;;;4.91;100.00
72118;BME280;59992;47.490;8.736;2024-03-02T02:32:27;95542.92;;;4.84;100.00
72118;BME280;59992;47.490;8.736;2024-03-02T02:35:20;95539.92;;;4.76;100.00
72118;BME280;59992;47.490;8.736;2024-03-02T02:38:10;95533.42;;;4.73;100.00
72118;BME280;59992;47.490;8.736;2024-03-02T02:41:00;95532.21;;;4.69;100.00
72118;BME280;59992;47.490;8.736;2024-03-02T02:43:51;95524.70;;;4.64;100.00
72118;BME280;59992;47.490;8.736;2024-03-02T02:46:41;95524.48;;;4.59;100.00
72118;BME280;59992;47.490;8.736;2024-03-02T02:49:32;95522.29;;;4.55;100.00
72118;BME280;59992;47.490;8.736;2024-03-02T02:52:22;95520.01;;;4.49;100.00
72118;BME280;59992;47.490;8.736;2024-03-02T02:55:13;95517.21;;;4.44;100.00
72118;BME280;59992;47.490;8.736;2024-03-02T02:58:04;95512.84;;;4.39;100.00
72118;BME280;59992;47.490;8.736;2024-03-02T03:00:55;95511.74;;;4.33;100.00
72118;BME280;59992;47.490;8.736;2024-03-02T03:03:45;95507.49;;;4.27;100.00
72118;BME280;59992;47.490;8.736;2024-03-02T03:06:35;95504.38;;;4.21;100.00
72118;BME280;59992;47.490;8.736;2024-03-02T03:09:26;95506.90;;;4.12;100.00
72118;BME280;59992;47.490;8.736;2024-03-02T03:12:16;95506.58;;;4.07;100.00
72118;BME280;59992;47.490;8.736;2024-03-02T03:15:08;95501.19;;;3.97;100.00
72118;BME280;59992;47.490;8.736;2024-03-02T03:17:58;95500.11;;;3.92;100.00
72118;BME280;59992;47.490;8.736;2024-03-02T03:20:48;95500.66;;;3.89;100.00
72118;BME280;59992;47.490;8.736;2024-03-02T03:23:42;95500.13;;;3.85;100.00
72118;BME280;59992;47.490;8.736;2024-03-02T03:26:33;95500.73;;;3.82;100.00
72118;BME280;59992;47.490;8.736;2024-03-02T03:29:25;95499.38;;;3.78;100.00
72118;BME280;59992;47.490;8.736;2024-03-02T03:32:16;95501.11;;;3.76;100.00
72118;BME280;59992;47.490;8.736;2024-03-02T03:35:08;95499.88;;;3.74;100.00
72118;BME280;59992;47.490;8.736;2024-03-02T03:37:58;95497.11;;;3.71;100.00
72118;BME280;59992;47.490;8.736;2024-03-02T03:40:48;95499.62;;;3.69;100.00
72118;BME280;59992;47.490;8.736;2024-03-02T03:43:39;95504.05;;;3.66;100.00
72118;BME280;59992;47.490;8.736;2024-03-02T03:46:29;95508.95;;;3.64;100.00
72118;BME280;59992;47.490;8.736;2024-03-02T03:49:19;95507.64;;;3.62;100.00
72118;BME280;59992;47.490;8.736;2024-03-02T03:52:10;95509.45;;;3.59;100.00
72118;BME280;59992;47.490;8.736;2024-03-02T03:55:00;95515.90;;;3.56;100.00
72118;BME280;59992;47.490;8.736;2024-03-02T03:57:51;95512.25;;;3.54;100.00
72118;BME280;59992;47.490;8.736;2024-03-02T04:00:41;95512.53;;;3.54;100.00
72118;BME280;59992;47.490;8.736;2024-03-02T04:03:34;95510.57;;;3.53;100.00
72118;BME280;59992;47.490;8.736;2024-03-02T04:06:24;95510.02;;;3.52;100.00
72118;BME280;59992;47.490;8.736;2024-03-02T04:09:15;95513.02;;;3.51;100.00
72118;BME280;59992;47.490;8.736;2024-03-02T04:12:07;95514.16;;;3.50;100.00
72118;BME280;59992;47.490;8.736;2024-03-02T04:14:57;95518.16;;;3.48;100.00
72118;BME280;59992;47.490;8.736;2024-03-02T04:17:47;95521.54;;;3.45;100.00
72118;BME280;59992;47.490;8.736;2024-03-02T04:20:37;95521.04;;;3.42;100.00
72118;BME280;59992;47.490;8.736;2024-03-02T04:23:27;95524.73;;;3.41;100.00
72118;BME280;59992;47.490;8.736;2024-03-02T04:26:17;95521.82;;;3.38;100.00
72118;BME280;59992;47.490;8.736;2024-03-02T04:29:11;95525.16;;;3.36;100.00
72118;BME280;59992;47.490;8.736;2024-03-02T04:32:01;95522.95;;;3.35;100.00
72118;BME280;59992;47.490;8.736;2024-03-02T04:34:51;95518.95;;;3.34;100.00
72118;BME280;59992;47.490;8.736;2024-03-02T04:37:41;95518.98;;;3.29;100.00
72118;BME280;59992;47.490;8.736;2024-03-02T04:40:32;95516.07;;;3.26;100.00
72118;BME280;59992;47.490;8.736;2024-03-02T04:43:23;95512.79;;;3.23;100.00
72118;BME280;59992;47.490;8.736;2024-03-02T04:46:13;95515.93;;;3.20;100.00
72118;BME280;59992;47.490;8.736;2024-03-02T04:49:03;95513.33;;;3.17;100.00
72118;BME280;59992;47.490;8.736;2024-03-02T04:51:53;95516.89;;;3.16;100.00
72118;BME280;59992;47.490;8.736;2024-03-02T04:54:43;95518.17;;;3.14;100.00
72118;BME280;59992;47.490;8.736;2024-03-02T04:57:48;95521.36;;;3.12;100.00
72118;BME280;59992;47.490;8.736;2024-03-02T05:00:40;95522.04;;;3.10;100.00
72118;BME280;59992;47.490;8.736;2024-03-02T05:03:31;95525.03;;;3.07;100.00
72118;BME280;59992;47.490;8.736;2024-03-02T05:06:23;95521.84;;;3.04;100.00
72118;BME280;59992;47.490;8.736;2024-03-02T05:09:14;95527.42;;;3.01;100.00
72118;BME280;59992;47.490;8.736;2024-03-02T05:12:05;95529.30;;;2.98;100.00
72118;BME280;59992;47.490;8.736;2024-03-02T05:15:13;95532.25;;;2.93;100.00
72118;BME280;59992;47.490;8.736;2024-03-02T05:18:03;95532.85;;;2.90;100.00
72118;BME280;59992;47.490;8.736;2024-03-02T05:20:54;95530.70;;;2.85;100.00
72118;BME280;59992;47.490;8.736;2024-03-02T05:23:44;95528.02;;;2.83;100.00
72118;BME280;59992;47.490;8.736;2024-03-02T05:26:34;95530.17;;;2.76;100.00
72118;BME280;59992;47.490;8.736;2024-03-02T05:29:24;95531.43;;;2.70;100.00
72118;BME280;59992;47.490;8.736;2024-03-02T05:32:15;95534.11;;;2.63;100.00
72118;BME280;59992;47.490;8.736;2024-03-02T05:35:07;95532.46;;;2.58;100.00
72118;BME280;59992;47.490;8.736;2024-03-02T05:37:59;95528.38;;;2.54;100.00
72118;BME280;59992;47.490;8.736;2024-03-02T05:40:50;95533.36;;;2.50;100.00
72118;BME280;59992;47.490;8.736;2024-03-02T05:43:40;95541.36;;;2.47;100.00
72118;BME280;59992;47.490;8.736;2024-03-02T05:46:32;95542.48;;;2.44;100.00
72118;BME280;59992;47.490;8.736;2024-03-02T05:49:22;95549.39;;;2.43;100.00
72118;BME280;59992;47.490;8.736;2024-03-02T05:52:13;95549.05;;;2.47;100.00
72118;BME280;59992;47.490;8.736;2024-03-02T05:55:03;95556.96;;;2.52;100.00
72118;BME280;59992;47.490;8.736;2024-03-02T05:57:54;95557.95;;;2.58;100.00
72118;BME280;59992;47.490;8.736;2024-03-02T06:01:00;95548.54;;;2.67;100.00
72118;BME280;59992;47.490;8.736;2024-03-02T06:03:50;95551.59;;;2.77;100.00
72118;BME280;59992;47.490;8.736;2024-03-02T06:06:40;95553.17;;;2.87;100.00
72118;BME280;59992;47.490;8.736;2024-03-02T06:09:31;95552.52;;;2.96;100.00
72118;BME280;59992;47.490;8.736;2024-03-02T06:12:21;95551.05;;;3.07;100.00
72118;BME280;59992;47.490;8.736;2024-03-02T06:15:12;95548.08;;;3.16;100.00
72118;BME280;59992;47.490;8.736;2024-03-02T06:18:03;95547.00;;;3.24;100.00
72118;BME280;59992;47.490;8.736;2024-03-02T06:20:53;95549.05;;;3.31;100.00
72118;BME280;59992;47.490;8.736;2024-03-02T06:23:43;95549.91;;;3.33;100.00
72118;BME280;59992;47.490;8.736;2024-03-02T06:26:33;95559.00;;;3.43;100.00
72118;BME280;59992;47.490;8.736;2024-03-02T06:29:23;95558.66;;;3.49;100.00
72118;BME280;59992;47.490;8.736;2024-03-02T06:32:13;95548.60;;;3.50;100.00
72118;BME280;59992;47.490;8.736;2024-03-02T06:35:04;95560.31;;;3.52;100.00
72118;BME280;59992;47.490;8.736;2024-03-02T06:37:58;95556.50;;;3.49;100.00
72118;BME280;59992;47.490;8.736;2024-03-02T06:40:48;95559.37;;;3.52;100.00
72118;BME280;59992;47.490;8.736;2024-03-02T06:43:38;95548.38;;;3.47;100.00
72118;BME280;59992;47.490;8.736;2024-03-02T06:46:29;95558.80;;;3.54;100.00
72118;BME280;59992;47.490;8.736;2024-03-02T06:49:20;95564.02;;;3.56;100.00
72118;BME280;59992;47.490;8.736;2024-03-02T06:52:11;95562.19;;;3.58;100.00
72118;BME280;59992;47.490;8.736;2024-03-02T06:55:01;95559.02;;;3.54;100.00
72118;BME280;59992;47.490;8.736;2024-03-02T06:57:53;95559.85;;;3.54;100.00
72118;BME280;59992;47.490;8.736;2024-03-02T07:00:43;95564.15;;;3.52;100.00
72118;BME280;59992;47.490;8.736;2024-03-02T07:03:33;95562.13;;;3.55;100.00
72118;BME280;59992;47.490;8.736;2024-03-02T07:06:23;95566.63;;;3.59;100.00
72118;BME280;59992;47.490;8.736;2024-03-02T07:09:14;95554.05;;;3.56;100.00
72118;BME280;59992;47.490;8.736;2024-03-02T07:12:05;95561.03;;;3.63;100.00
72118;BME280;59992;47.490;8.736;2024-03-02T07:14:55;95566.20;;;3.70;100.00
72118;BME280;59992;47.490;8.736;2024-03-02T07:18:00;95564.77;;;3.73;100.00
72118;BME280;59992;47.490;8.736;2024-03-02T07:20:50;95566.65;;;3.77;100.00
72118;BME280;59992;47.490;8.736;2024-03-02T07:23:44;95564.98;;;3.79;100.00
72118;BME280;59992;47.490;8.736;2024-03-02T07:26:35;95561.25;;;3.80;100.00
72118;BME280;59992;47.490;8.736;2024-03-02T07:29:25;95561.27;;;3.80;100.00
72118;BME280;59992;47.490;8.736;2024-03-02T07:32:15;95565.18;;;3.85;100.00
72118;BME280;59992;47.490;8.736;2024-03-02T07:35:07;95561.91;;;3.92;100.00
72118;BME280;59992;47.490;8.736;2024-03-02T07:37:58;95561.82;;;3.95;100.00
72118;BME280;59992;47.490;8.736;2024-03-02T07:40:48;95562.68;;;3.96;100.00
72118;BME280;59992;47.490;8.736;2024-03-02T07:43:39;95558.05;;;4.07;100.00
72118;BME280;59992;47.490;8.736;2024-03-02T07:46:29;95552.46;;;4.16;100.00
72118;BME280;59992;47.490;8.736;2024-03-02T07:49:20;95547.34;;;4.26;100.00
72118;BME280;59992;47.490;8.736;2024-03-02T07:52:11;95548.96;;;4.24;99.97
72118;BME280;59992;47.490;8.736;2024-03-02T07:55:01;95550.75;;;4.24;99.90
72118;BME280;59992;47.490;8.736;2024-03-02T07:57:52;95549.28;;;4.25;99.92
72118;BME280;59992;47.490;8.736;2024-03-02T08:00:42;95545.06;;;4.31;99.93
72118;BME280;59992;47.490;8.736;2024-03-02T08:03:32;95546.25;;;4.42;100.00
72118;BME280;59992;47.490;8.736;2024-03-02T08:06:23;95550.89;;;4.56;99.92
72118;BME280;59992;47.490;8.736;2024-03-02T08:09:16;95552.50;;;4.63;99.71
72118;BME280;59992;47.490;8.736;2024-03-02T08:12:07;95553.95;;;4.72;100.00
72118;BME280;59992;47.490;8.736;2024-03-02T08:14:59;95548.98;;;4.74;100.00
72118;BME280;59992;47.490;8.736;2024-03-02T08:17:50;95543.46;;;4.80;99.85
72118;BME280;59992;47.490;8.736;2024-03-02T08:20:40;95542.82;;;4.90;99.78
72118;BME280;59992;47.490;8.736;2024-03-02T08:23:32;95544.95;;;5.05;98.34
72118;BME280;59992;47.490;8.736;2024-03-02T08:26:23;95543.95;;;5.12;96.82
72118;BME280;59992;47.490;8.736;2024-03-02T08:29:13;95546.45;;;5.22;97.56
72118;BME280;59992;47.490;8.736;2024-03-02T08:32:06;95544.98;;;5.28;97.60
72118;BME280;59992;47.490;8.736;2024-03-02T08:34:56;95538.67;;;5.27;95.63
72118;BME280;59992;47.490;8.736;2024-03-02T08:37:46;95543.11;;;5.37;95.23
72118;BME280;59992;47.490;8.736;2024-03-02T08:40:37;95538.23;;;5.33;96.75
72118;BME280;59992;47.490;8.736;2024-03-02T08:43:27;95534.54;;;5.42;95.76
72118;BME280;59992;47.490;8.736;2024-03-02T08:46:18;95532.89;;;5.51;95.00
72118;BME280;59992;47.490;8.736;2024-03-02T08:49:08;95532.80;;;5.50;95.93
72118;BME280;59992;47.490;8.736;2024-03-02T08:51:58;95529.71;;;5.50;96.01
72118;BME280;59992;47.490;8.736;2024-03-02T08:54:50;95525.98;;;5.57;97.54
72118;BME280;59992;47.490;8.736;2024-03-02T08:57:40;95521.64;;;5.72;96.61
72118;BME280;59992;47.490;8.736;2024-03-02T09:00:31;95512.41;;;5.73;95.74
72118;BME280;59992;47.490;8.736;2024-03-02T09:03:21;95505.55;;;5.86;94.81
72118;BME280;59992;47.490;8.736;2024-03-02T09:06:15;95503.48;;;5.87;95.43
72118;BME280;59992;47.490;8.736;2024-03-02T09:09:07;95505.63;;;6.03;95.84
72118;BME280;59992;47.490;8.736;2024-03-02T09:11:57;95504.34;;;6.13;96.24
72118;BME280;59992;47.490;8.736;2024-03-02T09:14:48;95503.14;;;6.24;96.05
72118;BME280;59992;47.490;8.736;2024-03-02T09:17:41;95497.81;;;6.26;94.94
72118;BME280;59992;47.490;8.736;2024-03-02T09:20:31;95489.10;;;6.33;94.36
72118;BME280;59992;47.490;8.736;2024-03-02T09:23:22;95494.19;;;6.37;93.90
72118;BME280;59992;47.490;8.736;2024-03-02T09:26:12;95496.14;;;6.44;93.52
72118;BME280;59992;47.490;8.736;2024-03-02T09:29:03;95490.65;;;6.58;94.43
72118;BME280;59992;47.490;8.736;2024-03-02T09:31:54;95484.13;;;6.66;93.37
72118;BME280;59992;47.490;8.736;2024-03-02T09:34:45;95476.24;;;6.69;92.67
72118;BME280;59992;47.490;8.736;2024-03-02T09:37:37;95477.39;;;6.76;93.25
72118;BME280;59992;47.490;8.736;2024-03-02T09:40:27;95475.58;;;6.84;93.06
72118;BME280;59992;47.490;8.736;2024-03-02T09:43:18;95478.50;;;6.91;92.02
72118;BME280;59992;47.490;8.736;2024-03-02T09:46:09;95476.36;;;6.94;91.27
72118;BME280;59992;47.490;8.736;2024-03-02T09:49:00;95472.18;;;6.99;92.78
72118;BME280;59992;47.490;8.736;2024-03-02T09:51:50;95464.79;;;7.13;93.18
72118;BME280;59992;47.490;8.736;2024-03-02T09:54:40;95462.88;;;7.20;91.43
72118;BME280;59992;47.490;8.736;2024-03-02T09:57:30;95458.02;;;7.36;92.17
72118;BME280;59992;47.490;8.736;2024-03-02T10:00:21;95465.55;;;7.46;91.98
72118;BME280;59992;47.490;8.736;2024-03-02T10:03:14;95471.48;;;7.43;90.73
72118;BME280;59992;47.490;8.736;2024-03-02T10:06:21;95472.84;;;7.42;89.50
72118;BME280;59992;47.490;8.736;2024-03-02T10:09:28;95474.61;;;7.49;89.43
72118;BME280;59992;47.490;8.736;2024-03-02T10:12:18;95466.67;;;7.55;89.73
72118;BME280;59992;47.490;8.736;2024-03-02T10:15:09;95462.17;;;7.69;93.12
72118;BME280;59992;47.490;8.736;2024-03-02T10:17:59;95461.96;;;7.74;91.08
72118;BME280;59992;47.490;8.736;2024-03-02T10:20:50;95459.58;;;7.77;89.15
72118;BME280;59992;47.490;8.736;2024-03-02T10:23:40;95452.68;;;7.83;90.70
72118;BME280;59992;47.490;8.736;2024-03-02T10:26:30;95447.04;;;7.87;90.12
72118;BME280;59992;47.490;8.736;2024-03-02T10:29:21;95438.54;;;7.88;88.09
72118;BME280;59992;47.490;8.736;2024-03-02T10:32:11;95440.15;;;7.94;87.54
72118;BME280;59992;47.490;8.736;2024-03-02T10:35:02;95438.30;;;8.03;88.04
72118;BME280;59992;47.490;8.736;2024-03-02T10:37:53;95438.80;;;8.14;88.50
72118;BME280;59992;47.490;8.736;2024-03-02T10:40:48;95436.64;;;8.18;87.16
72118;BME280;59992;47.490;8.736;2024-03-02T10:43:39;95435.66;;;8.21;86.86
72118;BME280;59992;47.490;8.736;2024-03-02T10:46:31;95437.84;;;8.30;87.61
72118;BME280;59992;47.490;8.736;2024-03-02T10:49:22;95436.38;;;8.44;88.89
72118;BME280;59992;47.490;8.736;2024-03-02T10:52:12;95431.23;;;8.46;87.16
72118;BME280;59992;47.490;8.736;2024-03-02T10:55:05;95422.74;;;8.56;86.25
72118;BME280;59992;47.490;8.736;2024-03-02T10:57:56;95418.61;;;8.64;86.14
72118;BME280;59992;47.490;8.736;2024-03-02T11:00:52;95417.27;;;8.73;86.28
72118;BME280;59992;47.490;8.736;2024-03-02T11:03:43;95387.45;;;8.67;85.28
72118;BME280;59992;47.490;8.736;2024-03-02T11:06:35;95397.95;;;8.85;88.25
72118;BME280;59992;47.490;8.736;2024-03-02T11:09:29;95396.75;;;8.91;86.63
72118;BME280;59992;47.490;8.736;2024-03-02T11:12:22;95394.86;;;8.98;86.79
72118;BME280;59992;47.490;8.736;2024-03-02T11:15:17;95392.98;;;9.02;85.82
72118;BME280;59992;47.490;8.736;2024-03-02T11:18:09;95384.82;;;9.06;86.11
72118;BME280;59992;47.490;8.736;2024-03-02T11:21:00;95383.08;;;9.06;84.48
72118;BME280;59992;47.490;8.736;2024-03-02T11:23:52;95373.03;;;9.04;84.93
72118;BME280;59992;47.490;8.736;2024-03-02T11:26:42;95365.18;;;9.06;84.22
72118;BME280;59992;47.490;8.736;2024-03-02T11:29:55;95359.89;;;9.11;85.07
72118;BME280;59992;47.490;8.736;2024-03-02T11:32:56;95363.20;;;9.16;84.67
72118;BME280;59992;47.490;8.736;2024-03-02T11:35:46;95359.73;;;9.23;84.74
72118;BME280;59992;47.490;8.736;2024-03-02T11:38:37;95354.29;;;9.25;84.64
72118;BME280;59992;47.490;8.736;2024-03-02T11:41:27;95346.94;;;9.36;86.47
72118;BME280;59992;47.490;8.736;2024-03-02T11:44:18;95341.77;;;9.43;85.03
72118;BME280;59992;47.490;8.736;2024-03-02T11:47:11;95336.85;;;9.50;85.19
72118;BME280;59992;47.490;8.736;2024-03-02T11:50:03;95336.14;;;9.60;85.61
72118;BME280;59992;47.490;8.736;2024-03-02T11:52:57;95328.39;;;9.70;84.51
72118;BME280;59992;47.490;8.736;2024-03-02T11:55:48;95326.54;;;9.82;85.27
72118;BME280;59992;47.490;8.736;2024-03-02T11:58:41;95321.88;;;9.90;83.87
72118;BME280;59992;47.490;8.736;2024-03-02T12:01:38;95308.14;;;10.00;83.06
72118;BME280;59992;47.490;8.736;2024-03-02T12:04:28;95305.90;;;10.13;83.82
72118;BME280;59992;47.490;8.736;2024-03-02T12:07:23;95305.19;;;10.22;83.51
72118;BME280;59992;47.490;8.736;2024-03-02T12:10:13;95299.83;;;10.31;83.75
72118;BME280;59992;47.490;8.736;2024-03-02T12:13:06;95293.38;;;10.45;84.40
72118;BME280;59992;47.490;8.736;2024-03-02T12:15:59;95287.15;;;10.57;83.07
72118;BME280;59992;47.490;8.736;2024-03-02T12:18:49;95293.15;;;10.64;82.76
72118;BME280;59992;47.490;8.736;2024-03-02T12:21:40;95287.09;;;10.64;79.98
72118;BME280;59992;47.490;8.736;2024-03-02T12:24:30;95278.55;;;10.71;79.70
72118;BME280;59992;47.490;8.736;2024-03-02T12:27:21;95276.58;;;10.80;80.28
72118;BME280;59992;47.490;8.736;2024-03-02T12:30:13;95273.17;;;10.89;81.66
72118;BME280;59992;47.490;8.736;2024-03-02T12:33:04;95266.05;;;10.97;80.88
72118;BME280;59992;47.490;8.736;2024-03-02T12:35:59;95259.78;;;11.03;79.53
72118;BME280;59992;47.490;8.736;2024-03-02T12:38:48;95254.60;;;11.06;77.40
72118;BME280;59992;47.490;8.736;2024-03-02T12:41:44;95252.28;;;11.10;77.94
72118;BME280;59992;47.490;8.736;2024-03-02T12:44:35;95245.79;;;11.15;77.34
72118;BME280;59992;47.490;8.736;2024-03-02T12:47:25;95239.56;;;11.23;77.36
72118;BME280;59992;47.490;8.736;2024-03-02T12:50:16;95232.73;;;11.32;77.10
72118;BME280;59992;47.490;8.736;2024-03-02T12:53:06;95225.31;;;11.37;77.47
72118;BME280;59992;47.490;8.736;2024-03-02T12:55:58;95230.04;;;11.48;77.14
72118;BME280;59992;47.490;8.736;2024-03-02T12:58:52;95226.52;;;11.50;75.98
72118;BME280;59992;47.490;8.736;2024-03-02T13:01:53;95223.03;;;11.56;75.49
72118;BME280;59992;47.490;8.736;2024-03-02T13:04:51;95221.50;;;11.64;73.00
72118;BME280;59992;47.490;8.736;2024-03-02T13:07:42;95215.39;;;11.74;73.44
72118;BME280;59992;47.490;8.736;2024-03-02T13:10:34;95212.33;;;11.88;73.87
72118;BME280;59992;47.490;8.736;2024-03-02T13:13:24;95209.95;;;12.00;75.66
72118;BME280;59992;47.490;8.736;2024-03-02T13:16:15;95204.70;;;12.07;74.18
72118;BME280;59992;47.490;8.736;2024-03-02T13:19:09;95206.67;;;12.11;73.22
72118;BME280;59992;47.490;8.736;2024-03-02T13:22:00;95204.10;;;12.16;72.74
72118;BME280;59992;47.490;8.736;2024-03-02T13:24:51;95202.14;;;12.20;74.24
72118;BME280;59992;47.490;8.736;2024-03-02T13:27:49;95194.94;;;12.25;75.45
72118;BME280;59992;47.490;8.736;2024-03-02T13:30:42;95189.20;;;12.32;75.43
72118;BME280;59992;47.490;8.736;2024-03-02T13:33:32;95186.05;;;12.39;73.23
72118;BME280;59992;47.490;8.736;2024-03-02T13:36:26;95178.87;;;12.42;70.21
72118;BME280;59992;47.490;8.736;2024-03-02T13:39:18;95175.27;;;12.48;70.93
72118;BME280;59992;47.490;8.736;2024-03-02T13:42:09;95168.06;;;12.56;70.41
72118;BME280;59992;47.490;8.736;2024-03-02T13:45:02;95163.26;;;12.57;66.86
72118;BME280;59992;47.490;8.736;2024-03-02T13:47:55;95166.80;;;12.63;68.76
72118;BME280;59992;47.490;8.736;2024-03-02T13:50:45;95165.52;;;12.68;68.09
72118;BME280;59992;47.490;8.736;2024-03-02T13:53:43;95159.27;;;12.64;68.33
72118;BME280;59992;47.490;8.736;2024-03-02T13:56:33;95156.70;;;12.68;68.76
72118;BME280;59992;47.490;8.736;2024-03-02T13:59:27;95157.61;;;12.68;68.85
72118;BME280;59992;47.490;8.736;2024-03-02T14:02:19;95149.63;;;12.63;65.73
72118;BME280;59992;47.490;8.736;2024-03-02T14:05:09;95148.63;;;12.60;68.38
72118;BME280;59992;47.490;8.736;2024-03-02T14:08:00;95146.27;;;12.57;67.45
72118;BME280;59992;47.490;8.736;2024-03-02T14:10:50;95143.29;;;12.57;67.55
72118;BME280;59992;47.490;8.736;2024-03-02T14:13:40;95146.81;;;12.60;70.85
72118;BME280;59992;47.490;8.736;2024-03-02T14:16:33;95143.72;;;12.63;69.74
72118;BME280;59992;47.490;8.736;2024-03-02T14:19:26;95144.71;;;12.66;68.48
72118;BME280;59992;47.490;8.736;2024-03-02T14:22:16;95132.95;;;12.66;66.35
72118;BME280;59992;47.490;8.736;2024-03-02T14:25:08;95135.35;;;12.76;67.66
72118;BME280;59992;47.490;8.736;2024-03-02T14:27:58;95132.05;;;12.78;64.12
72118;BME280;59992;47.490;8.736;2024-03-02T14:30:48;95128.27;;;12.80;63.40
72118;BME280;59992;47.490;8.736;2024-03-02T14:33:39;95124.85;;;12.77;60.94
72118;BME280;59992;47.490;8.736;2024-03-02T14:36:29;95128.73;;;12.81;64.46
72118;BME280;59992;47.490;8.736;2024-03-02T14:39:20;95124.48;;;12.81;63.23
72118;BME280;59992;47.490;8.736;2024-03-02T14:42:11;95124.02;;;12.88;63.42
72118;BME280;59992;47.490;8.736;2024-03-02T14:45:02;95121.37;;;12.88;62.41
72118;BME280;59992;47.490;8.736;2024-03-02T14:47:57;95118.70;;;12.92;64.86
72118;BME280;59992;47.490;8.736;2024-03-02T14:50:48;95119.20;;;12.95;65.04
72118;BME280;59992;47.490;8.736;2024-03-02T14:53:38;95115.33;;;12.98;66.67
72118;BME280;59992;47.490;8.736;2024-03-02T14:56:29;95107.75;;;12.97;64.36
72118;BME280;59992;47.490;8.736;2024-03-02T14:59:20;95106.89;;;12.95;63.81
72118;BME280;59992;47.490;8.736;2024-03-02T15:02:10;95104.85;;;12.90;62.87
72118;BME280;59992;47.490;8.736;2024-03-02T15:05:00;95100.84;;;12.86;63.14
72118;BME280;59992;47.490;8.736;2024-03-02T15:07:51;95101.80;;;12.83;64.16
72118;BME280;59992;47.490;8.736;2024-03-02T15:10:42;95099.42;;;12.80;65.84